createdAt,value
2019-06-07T00:01:08.473Z,5.38
2019-06-07T00:06:20.404Z,5.39
2019-06-07T00:11:22.166Z,5.16
2019-06-07T00:16:29.953Z,5.48
2019-06-07T00:22:13.658Z,5.76
2019-06-07T00:26:57.687Z,5.59
2019-06-07T00:31:53.138Z,5.84
2019-06-07T00:37:00.901Z,5.40
2019-06-07T00:42:08.548Z,6.08
2019-06-07T00:47:18.750Z,6.41
2019-06-07T00:53:11.657Z,6.87
2019-06-07T00:57:30.671Z,6.13
2019-06-07T01:02:38.372Z,6.34
2019-06-07T01:07:46.158Z,6.45
2019-06-07T01:12:56.967Z,6.30
2019-06-07T01:23:01.808Z,6.54
2019-06-07T01:28:09.596Z,6.57
2019-06-07T01:33:18.331Z,6.94
2019-06-07T01:38:30.506Z,7.03
2019-06-07T01:43:30.457Z,6.88
2019-06-07T01:48:48.845Z,7.17
2019-06-07T01:53:42.361Z,7.02
2019-06-07T01:58:50.174Z,6.74
2019-06-07T02:03:57.892Z,6.72
2019-06-07T02:09:05.661Z,6.93
2019-06-07T02:14:13.352Z,6.86
2019-06-07T02:19:22.046Z,6.83
2019-06-07T02:24:29.641Z,6.75
2019-06-07T02:29:35.475Z,6.84
2019-06-07T02:34:43.300Z,6.59
2019-06-07T02:39:51.272Z,6.65
2019-06-07T02:44:58.976Z,7.62
2019-06-07T02:50:06.756Z,7.89
2019-06-07T02:55:15.176Z,8.20
2019-06-07T03:00:40.575Z,7.95
2019-06-07T03:05:34.194Z,8.22
2019-06-07T03:10:40.288Z,8.41
2019-06-07T03:15:49.814Z,7.99
2019-06-07T03:21:05.007Z,8.53
2019-06-07T03:25:59.584Z,8.25
2019-06-07T03:31:07.438Z,8.53
2019-06-07T03:36:23.809Z,8.72
2019-06-07T03:41:22.514Z,8.73
2019-06-07T03:46:34.321Z,8.50
2019-06-07T03:51:39.730Z,8.88
2019-06-07T03:56:44.761Z,8.86
2019-06-07T04:01:52.625Z,8.49
2019-06-07T04:07:01.241Z,8.35
2019-06-07T04:12:07.598Z,10.73
2019-06-07T04:17:15.246Z,10.75
2019-06-07T04:22:23.018Z,11.71
2019-06-07T04:27:30.825Z,11.36
2019-06-07T04:32:40.599Z,12.09
2019-06-07T04:37:45.826Z,11.76
2019-06-07T04:42:53.433Z,10.95
2019-06-07T04:48:01.251Z,10.89
2019-06-07T04:53:08.777Z,10.17
2019-06-07T04:58:15.720Z,9.54
2019-06-07T05:03:23.441Z,9.22
2019-06-07T05:08:33.267Z,8.63
2019-06-07T05:13:41.444Z,8.26
2019-06-07T05:18:46.737Z,6.63
2019-06-07T05:24:07.502Z,6.59
2019-06-07T05:29:01.790Z,5.85
2019-06-07T05:34:14.176Z,5.22
2019-06-07T05:39:11.830Z,5.41
2019-06-07T05:44:19.599Z,5.05
2019-06-07T05:49:27.268Z,4.99
2019-06-07T05:54:36.091Z,5.08
2019-06-07T05:59:44.865Z,5.25
2019-06-07T06:04:52.914Z,5.29
2019-06-07T06:09:50.634Z,6.30
2019-06-07T06:14:58.433Z,5.49
2019-06-07T06:20:06.123Z,5.95
2019-06-07T06:25:31.829Z,6.75
2019-06-07T06:30:21.297Z,5.79
2019-06-07T06:35:29.002Z,5.79
2019-06-07T06:40:38.914Z,5.10
2019-06-07T06:45:48.688Z,5.30
2019-06-07T06:50:52.812Z,4.94
2019-06-07T06:55:59.655Z,4.43
2019-06-07T07:01:07.389Z,4.22
2019-06-07T07:06:25.899Z,4.60
2019-06-07T07:11:23.474Z,4.14
2019-06-07T07:16:30.260Z,4.01
2019-06-07T07:21:37.896Z,4.20
2019-06-07T07:26:48.190Z,3.66
2019-06-07T07:31:56.194Z,4.11
2019-06-07T07:37:00.425Z,3.87
2019-06-07T07:42:20.331Z,4.13
2019-06-07T07:47:15.832Z,3.94
2019-06-07T07:52:23.568Z,3.72
2019-06-07T07:57:31.236Z,3.94
2019-06-07T08:02:38.881Z,3.73
2019-06-07T08:07:49.963Z,4.16
2019-06-07T08:13:16.595Z,3.48
2019-06-07T08:18:04.156Z,4.03
2019-06-07T08:23:08.777Z,3.95
2019-06-07T08:28:16.427Z,3.72
2019-06-07T08:33:26.382Z,4.31
2019-06-07T08:38:46.952Z,4.58
2019-06-07T08:43:38.621Z,4.27
2019-06-07T08:48:46.371Z,4.50
2019-06-07T08:54:18.643Z,4.52
2019-06-07T08:59:10.765Z,4.59
2019-06-07T09:04:11.097Z,4.21
2019-06-07T09:09:15.813Z,4.08
2019-06-07T09:14:23.522Z,4.14
2019-06-07T09:19:31.294Z,3.31
2019-06-07T09:24:38.942Z,3.54
2019-06-07T09:29:46.713Z,3.40
2019-06-07T09:34:54.409Z,3.54
2019-06-07T09:40:15.385Z,3.36
2019-06-07T09:45:13.795Z,3.16
2019-06-07T09:50:16.771Z,2.56
2019-06-07T09:55:25.294Z,2.73
2019-06-07T10:00:40.933Z,3.08
2019-06-07T10:05:39.206Z,3.06
2019-06-07T10:10:46.884Z,2.72
2019-06-07T10:15:54.648Z,2.73
2019-06-07T10:21:03.794Z,2.58
2019-06-07T10:26:10.506Z,2.23
2019-06-07T10:31:18.168Z,2.41
2019-06-07T10:36:25.855Z,2.41
2019-06-07T10:41:33.527Z,2.66
2019-06-07T10:46:42.304Z,2.56
2019-06-07T10:51:49.905Z,3.11
2019-06-07T10:56:57.894Z,2.60
2019-06-07T11:02:05.853Z,2.42
2019-06-07T11:07:14.448Z,2.74
2019-06-07T11:12:22.343Z,2.43
2019-06-07T11:17:30.284Z,2.67
2019-06-07T11:22:38.145Z,2.81
2019-06-07T11:27:46.652Z,2.40
2019-06-07T11:32:55.082Z,2.52
2019-06-07T11:38:02.801Z,2.71
2019-06-07T11:43:10.786Z,2.24
2019-06-07T11:48:18.233Z,2.15
2019-06-07T11:53:25.916Z,2.68
2019-06-07T11:58:34.773Z,2.18
2019-06-07T12:03:42.489Z,2.01
2019-06-07T12:08:50.347Z,1.99
2019-06-07T12:13:58.046Z,1.97
2019-06-07T12:19:05.797Z,1.82
2019-06-07T12:24:14.165Z,1.84
2019-06-07T12:29:21.136Z,2.05
2019-06-07T12:34:28.001Z,2.32
2019-06-07T12:39:35.690Z,1.87
2019-06-07T12:44:43.313Z,1.75
2019-06-07T12:49:52.193Z,2.00
2019-06-07T12:55:00.764Z,1.71
2019-06-07T13:00:08.648Z,2.12
2019-06-07T13:05:17.914Z,1.99
2019-06-07T13:10:25.350Z,2.18
2019-06-07T13:15:33.154Z,1.78
2019-06-07T13:20:41.025Z,1.95
2019-06-07T13:25:48.729Z,1.77
2019-06-07T13:30:57.471Z,1.83
2019-06-07T13:36:05.122Z,1.94
2019-06-07T13:41:12.876Z,1.89
2019-06-07T13:46:21.053Z,1.90
2019-06-07T13:51:29.028Z,1.81
2019-06-07T13:56:36.125Z,2.01
2019-06-07T14:01:44.119Z,1.63
2019-06-07T14:06:52.008Z,1.75
2019-06-07T14:12:00.806Z,1.77
2019-06-07T14:17:08.767Z,2.08
2019-06-07T14:22:16.454Z,1.87
2019-06-07T14:27:25.458Z,1.61
2019-06-07T14:32:32.729Z,1.77
2019-06-07T14:37:38.978Z,1.71
2019-06-07T14:42:46.647Z,2.07
2019-06-07T14:47:54.494Z,1.68
2019-06-07T14:53:02.207Z,2.47
2019-06-07T14:58:10.107Z,2.03
2019-06-07T15:03:17.860Z,2.23
2019-06-07T15:08:26.526Z,1.93
2019-06-07T15:13:33.562Z,1.82
2019-06-07T15:18:40.202Z,1.88
2019-06-07T15:23:48.204Z,2.04
2019-06-07T15:28:55.994Z,2.25
2019-06-07T15:34:03.637Z,1.99
2019-06-07T15:39:12.300Z,2.31
2019-06-07T15:44:20.022Z,2.28
2019-06-07T15:49:27.830Z,2.08
2019-06-07T15:54:36.430Z,2.11
2019-06-07T15:59:43.000Z,2.83
2019-06-07T16:04:50.762Z,2.37
2019-06-07T16:09:58.636Z,2.48
2019-06-07T16:15:06.306Z,2.12
2019-06-07T16:20:14.211Z,2.21
2019-06-07T16:25:21.874Z,2.22
2019-06-07T16:30:29.693Z,3.62
2019-06-07T16:35:37.582Z,2.79
2019-06-07T16:40:45.298Z,2.66
2019-06-07T16:45:53.001Z,2.38
2019-06-07T16:51:00.753Z,2.35
2019-06-07T16:56:08.522Z,2.58
2019-06-07T17:01:16.289Z,2.44
2019-06-07T17:06:24.032Z,2.43
2019-06-07T17:11:32.809Z,2.82
2019-06-07T17:16:40.941Z,3.13
2019-06-07T17:21:49.459Z,3.39
2019-06-07T17:26:55.724Z,2.89
2019-06-07T17:32:03.488Z,3.03
2019-06-07T17:37:11.126Z,3.28
2019-06-07T17:42:18.941Z,3.40
2019-06-07T17:47:26.974Z,5.21
2019-06-07T17:52:34.705Z,6.73
2019-06-07T17:57:42.501Z,3.83
2019-06-07T18:02:50.984Z,3.84
2019-06-07T18:07:57.545Z,3.64
2019-06-07T18:13:05.328Z,3.66
2019-06-07T18:18:13.002Z,3.34
2019-06-07T18:23:20.763Z,3.75
2019-06-07T18:28:28.478Z,3.90
2019-06-07T18:33:36.290Z,3.48
2019-06-07T18:38:43.972Z,3.96
2019-06-07T18:43:52.954Z,3.75
2019-06-07T18:48:59.118Z,4.53
2019-06-07T18:54:06.890Z,4.13
2019-06-07T18:59:14.535Z,4.09
2019-06-07T19:04:22.479Z,4.29
2019-06-07T19:09:30.192Z,4.31
2019-06-07T19:14:38.046Z,4.05
2019-06-07T19:19:45.766Z,4.21
2019-06-07T19:24:54.102Z,4.54
2019-06-07T19:30:01.135Z,4.67
2019-06-07T19:35:09.284Z,4.78
2019-06-07T19:40:17.022Z,4.58
2019-06-07T19:45:30.220Z,4.20
2019-06-07T19:50:31.964Z,4.17
2019-06-07T19:55:39.794Z,3.68
2019-06-07T20:00:47.516Z,2.97
2019-06-07T20:05:56.058Z,3.05
2019-06-07T20:11:02.800Z,2.49
2019-06-07T20:16:10.446Z,2.76
2019-06-07T20:21:18.115Z,2.40
2019-06-07T20:26:25.969Z,2.32
2019-06-07T20:31:36.810Z,2.08
2019-06-07T20:36:34.572Z,2.39
2019-06-07T20:41:42.356Z,2.09
2019-06-07T20:46:50.253Z,2.46
2019-06-07T20:51:58.356Z,2.44
2019-06-07T20:57:05.261Z,2.38
2019-06-07T21:02:13.006Z,3.74
2019-06-07T21:07:21.097Z,3.23
2019-06-07T21:12:28.786Z,2.94
2019-06-07T21:17:36.679Z,3.34
2019-06-07T21:22:44.646Z,3.07
2019-06-07T21:27:52.461Z,3.43
2019-06-07T21:33:01.367Z,3.20
2019-06-07T21:38:07.833Z,2.73
2019-06-07T21:43:14.669Z,2.60
2019-06-07T21:48:22.655Z,2.48
2019-06-07T21:53:30.685Z,2.50
2019-06-07T21:58:38.564Z,2.24
2019-06-07T22:03:46.239Z,2.42
2019-06-07T22:08:54.120Z,2.43
2019-06-07T22:14:01.862Z,2.54
2019-06-07T22:19:10.779Z,2.44
2019-06-07T22:24:16.756Z,2.47
2019-06-07T22:29:24.481Z,2.48
2019-06-07T22:34:37.881Z,2.23
2019-06-07T22:39:35.526Z,2.16
2019-06-07T22:44:43.262Z,2.07
2019-06-07T22:49:51.058Z,2.12
2019-06-07T22:54:58.756Z,1.97
2019-06-07T23:00:10.189Z,2.26
2019-06-07T23:05:14.770Z,2.04
2019-06-07T23:10:21.155Z,2.00
2019-06-07T23:15:28.781Z,2.08
2019-06-07T23:20:36.536Z,1.94
2019-06-07T23:25:44.139Z,1.80
2019-06-07T23:30:51.829Z,1.83
2019-06-07T23:35:59.521Z,1.96
2019-06-07T23:41:07.375Z,1.88
2019-06-07T23:46:15.328Z,1.80
2019-06-07T23:51:22.746Z,1.89
2019-06-07T23:56:30.714Z,2.00
